sensor_id;sensor_type;location;lat;lon;timestamp;P1;durP1;ratioP1;P2;durP2;ratioP2
5555;SDS011;2801;50.972;7.856;2023-04-25T00:02:24;13.70;;;5.33;;
5555;SDS011;2801;50.972;7.856;2023-04-25T00:04:51;17.50;;;5.20;;
5555;SDS011;2801;50.972;7.856;2023-04-25T00:07:19;16.33;;;4.93;;
5555;SDS011;2801;50.972;7.856;2023-04-25T00:09:46;14.70;;;4.73;;
5555;SDS011;2801;50.972;7.856;2023-04-25T00:12:13;13.97;;;4.53;;
5555;SDS011;2801;50.972;7.856;2023-04-25T00:14:41;10.57;;;4.10;;
5555;SDS011;2801;50.972;7.856;2023-04-25T00:17:08;11.97;;;4.50;;
5555;SDS011;2801;50.972;7.856;2023-04-25T00:19:35;10.83;;;4.23;;
5555;SDS011;2801;50.972;7.856;2023-04-25T00:22:03;10.67;;;4.80;;
5555;SDS011;2801;50.972;7.856;2023-04-25T00:24:31;14.53;;;4.50;;
5555;SDS011;2801;50.972;7.856;2023-04-25T00:26:58;13.23;;;4.13;;
5555;SDS011;2801;50.972;7.856;2023-04-25T00:29:25;10.40;;;4.90;;
5555;SDS011;2801;50.972;7.856;2023-04-25T00:31:52;15.40;;;5.23;;
5555;SDS011;2801;50.972;7.856;2023-04-25T00:34:19;14.70;;;4.90;;
5555;SDS011;2801;50.972;7.856;2023-04-25T00:36:46;12.17;;;5.00;;
5555;SDS011;2801;50.972;7.856;2023-04-25T00:39:13;10.93;;;4.97;;
5555;SDS011;2801;50.972;7.856;2023-04-25T00:41:40;13.83;;;5.10;;
5555;SDS011;2801;50.972;7.856;2023-04-25T00:44:08;11.03;;;4.50;;
5555;SDS011;2801;50.972;7.856;2023-04-25T00:46:38;11.80;;;4.50;;
5555;SDS011;2801;50.972;7.856;2023-04-25T00:49:06;10.23;;;4.10;;
5555;SDS011;2801;50.972;7.856;2023-04-25T00:51:33;10.50;;;4.10;;
5555;SDS011;2801;50.972;7.856;2023-04-25T00:54:00;14.30;;;5.10;;
5555;SDS011;2801;50.972;7.856;2023-04-25T00:56:27;14.13;;;4.60;;
5555;SDS011;2801;50.972;7.856;2023-04-25T00:58:54;13.60;;;5.00;;
5555;SDS011;2801;50.972;7.856;2023-04-25T01:01:23;10.30;;;4.90;;
5555;SDS011;2801;50.972;7.856;2023-04-25T01:03:50;19.73;;;5.27;;
5555;SDS011;2801;50.972;7.856;2023-04-25T01:06:20;14.43;;;4.93;;
5555;SDS011;2801;50.972;7.856;2023-04-25T01:08:48;19.43;;;5.33;;
5555;SDS011;2801;50.972;7.856;2023-04-25T01:11:16;15.50;;;5.17;;
5555;SDS011;2801;50.972;7.856;2023-04-25T01:13:44;17.70;;;6.17;;
5555;SDS011;2801;50.972;7.856;2023-04-25T01:16:10;15.27;;;5.20;;
5555;SDS011;2801;50.972;7.856;2023-04-25T01:18:38;15.33;;;5.43;;
5555;SDS011;2801;50.972;7.856;2023-04-25T01:21:11;22.20;;;5.50;;
5555;SDS011;2801;50.972;7.856;2023-04-25T01:23:41;15.87;;;5.30;;
5555;SDS011;2801;50.972;7.856;2023-04-25T01:26:09;15.93;;;5.17;;
5555;SDS011;2801;50.972;7.856;2023-04-25T01:28:38;12.27;;;5.37;;
5555;SDS011;2801;50.972;7.856;2023-04-25T01:31:09;21.37;;;5.63;;
5555;SDS011;2801;50.972;7.856;2023-04-25T01:33:38;16.00;;;5.93;;
5555;SDS011;2801;50.972;7.856;2023-04-25T01:36:05;14.83;;;4.97;;
5555;SDS011;2801;50.972;7.856;2023-04-25T01:38:32;16.70;;;5.80;;
5555;SDS011;2801;50.972;7.856;2023-04-25T01:41:00;29.43;;;6.10;;
5555;SDS011;2801;50.972;7.856;2023-04-25T01:43:27;20.13;;;6.60;;
5555;SDS011;2801;50.972;7.856;2023-04-25T01:45:54;18.60;;;5.90;;
5555;SDS011;2801;50.972;7.856;2023-04-25T01:48:21;20.30;;;6.97;;
5555;SDS011;2801;50.972;7.856;2023-04-25T01:50:48;24.83;;;6.60;;
5555;SDS011;2801;50.972;7.856;2023-04-25T01:53:15;21.20;;;5.87;;
5555;SDS011;2801;50.972;7.856;2023-04-25T01:55:43;19.63;;;6.13;;
5555;SDS011;2801;50.972;7.856;2023-04-25T01:58:09;20.63;;;6.10;;
5555;SDS011;2801;50.972;7.856;2023-04-25T02:00:39;20.43;;;6.20;;
5555;SDS011;2801;50.972;7.856;2023-04-25T02:03:07;21.80;;;6.43;;
5555;SDS011;2801;50.972;7.856;2023-04-25T02:05:38;25.67;;;6.63;;
5555;SDS011;2801;50.972;7.856;2023-04-25T02:08:07;22.97;;;6.57;;
5555;SDS011;2801;50.972;7.856;2023-04-25T02:10:35;22.37;;;5.67;;
5555;SDS011;2801;50.972;7.856;2023-04-25T02:13:03;18.10;;;5.47;;
5555;SDS011;2801;50.972;7.856;2023-04-25T02:15:31;21.33;;;5.73;;
5555;SDS011;2801;50.972;7.856;2023-04-25T02:17:58;20.00;;;6.17;;
5555;SDS011;2801;50.972;7.856;2023-04-25T02:20:26;16.33;;;5.80;;
5555;SDS011;2801;50.972;7.856;2023-04-25T02:22:56;19.53;;;5.57;;
5555;SDS011;2801;50.972;7.856;2023-04-25T02:25:23;11.70;;;5.10;;
5555;SDS011;2801;50.972;7.856;2023-04-25T02:27:50;22.00;;;5.87;;
5555;SDS011;2801;50.972;7.856;2023-04-25T02:30:17;14.00;;;4.87;;
5555;SDS011;2801;50.972;7.856;2023-04-25T02:32:45;14.27;;;5.27;;
5555;SDS011;2801;50.972;7.856;2023-04-25T02:35:12;20.37;;;5.47;;
5555;SDS011;2801;50.972;7.856;2023-04-25T02:37:39;19.60;;;5.13;;
5555;SDS011;2801;50.972;7.856;2023-04-25T02:40:06;21.93;;;5.40;;
5555;SDS011;2801;50.972;7.856;2023-04-25T02:42:34;16.63;;;5.47;;
5555;SDS011;2801;50.972;7.856;2023-04-25T02:45:01;15.87;;;5.60;;
5555;SDS011;2801;50.972;7.856;2023-04-25T02:47:29;17.03;;;5.57;;
5555;SDS011;2801;50.972;7.856;2023-04-25T02:49:56;14.57;;;5.17;;
5555;SDS011;2801;50.972;7.856;2023-04-25T02:52:23;17.40;;;5.50;;
5555;SDS011;2801;50.972;7.856;2023-04-25T02:54:51;16.90;;;5.07;;
5555;SDS011;2801;50.972;7.856;2023-04-25T02:57:17;14.93;;;5.00;;
5555;SDS011;2801;50.972;7.856;2023-04-25T02:59:44;15.70;;;5.93;;
5555;SDS011;2801;50.972;7.856;2023-04-25T03:02:11;14.23;;;5.00;;
5555;SDS011;2801;50.972;7.856;2023-04-25T03:04:38;17.13;;;5.57;;
5555;SDS011;2801;50.972;7.856;2023-04-25T03:07:06;17.00;;;5.30;;
5555;SDS011;2801;50.972;7.856;2023-04-25T03:09:33;19.63;;;5.70;;
5555;SDS011;2801;50.972;7.856;2023-04-25T03:12:00;15.17;;;5.20;;
5555;SDS011;2801;50.972;7.856;2023-04-25T03:14:27;14.30;;;5.80;;
5555;SDS011;2801;50.972;7.856;2023-04-25T03:16:54;12.93;;;5.07;;
5555;SDS011;2801;50.972;7.856;2023-04-25T03:19:21;14.80;;;5.53;;
5555;SDS011;2801;50.972;7.856;2023-04-25T03:21:48;15.37;;;5.40;;
5555;SDS011;2801;50.972;7.856;2023-04-25T03:24:15;15.43;;;5.57;;
5555;SDS011;2801;50.972;7.856;2023-04-25T03:26:42;17.70;;;5.93;;
5555;SDS011;2801;50.972;7.856;2023-04-25T03:29:09;14.33;;;5.70;;
5555;SDS011;2801;50.972;7.856;2023-04-25T03:31:36;13.47;;;5.10;;
5555;SDS011;2801;50.972;7.856;2023-04-25T03:34:03;13.67;;;5.60;;
5555;SDS011;2801;50.972;7.856;2023-04-25T03:36:30;15.83;;;5.80;;
5555;SDS011;2801;50.972;7.856;2023-04-25T03:38:58;19.40;;;5.70;;
5555;SDS011;2801;50.972;7.856;2023-04-25T03:41:25;14.60;;;5.70;;
5555;SDS011;2801;50.972;7.856;2023-04-25T03:43:53;13.33;;;5.57;;
5555;SDS011;2801;50.972;7.856;2023-04-25T03:46:21;18.93;;;6.00;;
5555;SDS011;2801;50.972;7.856;2023-04-25T03:48:48;15.60;;;6.13;;
5555;SDS011;2801;50.972;7.856;2023-04-25T03:51:15;23.17;;;6.90;;
5555;SDS011;2801;50.972;7.856;2023-04-25T03:53:42;18.53;;;6.37;;
5555;SDS011;2801;50.972;7.856;2023-04-25T03:56:09;20.07;;;6.50;;
5555;SDS011;2801;50.972;7.856;2023-04-25T03:58:36;17.17;;;6.43;;
5555;SDS011;2801;50.972;7.856;2023-04-25T04:01:03;16.93;;;6.57;;
5555;SDS011;2801;50.972;7.856;2023-04-25T04:03:33;20.17;;;7.17;;
5555;SDS011;2801;50.972;7.856;2023-04-25T04:06:03;22.87;;;7.30;;
5555;SDS011;2801;50.972;7.856;2023-04-25T04:08:32;16.07;;;6.87;;
5555;SDS011;2801;50.972;7.856;2023-04-25T04:10:59;19.67;;;7.07;;
5555;SDS011;2801;50.972;7.856;2023-04-25T04:13:27;14.70;;;7.37;;
5555;SDS011;2801;50.972;7.856;2023-04-25T04:15:55;15.70;;;6.73;;
5555;SDS011;2801;50.972;7.856;2023-04-25T04:18:22;17.47;;;7.07;;
5555;SDS011;2801;50.972;7.856;2023-04-25T04:20:49;19.30;;;7.13;;
5555;SDS011;2801;50.972;7.856;2023-04-25T04:23:17;23.23;;;8.53;;
5555;SDS011;2801;50.972;7.856;2023-04-25T04:25:45;17.97;;;7.60;;
5555;SDS011;2801;50.972;7.856;2023-04-25T04:28:13;17.13;;;6.97;;
5555;SDS011;2801;50.972;7.856;2023-04-25T04:30:40;20.33;;;7.90;;
5555;SDS011;2801;50.972;7.856;2023-04-25T04:33:07;19.17;;;7.67;;
5555;SDS011;2801;50.972;7.856;2023-04-25T04:35:35;20.60;;;7.63;;
5555;SDS011;2801;50.972;7.856;2023-04-25T04:38:02;19.93;;;8.20;;
5555;SDS011;2801;50.972;7.856;2023-04-25T04:40:29;21.80;;;8.33;;
5555;SDS011;2801;50.972;7.856;2023-04-25T04:42:57;20.20;;;7.77;;
5555;SDS011;2801;50.972;7.856;2023-04-25T04:45:24;19.67;;;8.23;;
5555;SDS011;2801;50.972;7.856;2023-04-25T04:47:51;24.87;;;7.90;;
5555;SDS011;2801;50.972;7.856;2023-04-25T04:50:18;18.70;;;8.33;;
5555;SDS011;2801;50.972;7.856;2023-04-25T04:52:46;22.50;;;8.60;;
5555;SDS011;2801;50.972;7.856;2023-04-25T04:55:13;22.50;;;9.00;;
5555;SDS011;2801;50.972;7.856;2023-04-25T04:57:40;21.60;;;8.40;;
5555;SDS011;2801;50.972;7.856;2023-04-25T05:00:07;18.47;;;8.60;;
5555;SDS011;2801;50.972;7.856;2023-04-25T05:02:37;19.70;;;8.67;;
5555;SDS011;2801;50.972;7.856;2023-04-25T05:05:06;21.63;;;8.60;;
5555;SDS011;2801;50.972;7.856;2023-04-25T05:07:34;18.43;;;8.13;;
5555;SDS011;2801;50.972;7.856;2023-04-25T05:10:01;17.50;;;7.57;;
5555;SDS011;2801;50.972;7.856;2023-04-25T05:12:28;19.70;;;7.73;;
5555;SDS011;2801;50.972;7.856;2023-04-25T05:14:56;21.70;;;8.67;;
5555;SDS011;2801;50.972;7.856;2023-04-25T05:17:23;20.60;;;8.73;;
5555;SDS011;2801;50.972;7.856;2023-04-25T05:19:50;19.50;;;7.97;;
5555;SDS011;2801;50.972;7.856;2023-04-25T05:22:17;18.07;;;8.03;;
5555;SDS011;2801;50.972;7.856;2023-04-25T05:24:44;18.03;;;8.47;;
5555;SDS011;2801;50.972;7.856;2023-04-25T05:27:11;22.60;;;9.10;;
5555;SDS011;2801;50.972;7.856;2023-04-25T05:29:37;15.40;;;7.47;;
5555;SDS011;2801;50.972;7.856;2023-04-25T05:32:04;16.53;;;8.47;;
5555;SDS011;2801;50.972;7.856;2023-04-25T05:34:32;17.93;;;8.57;;
5555;SDS011;2801;50.972;7.856;2023-04-25T05:36:59;16.40;;;8.00;;
5555;SDS011;2801;50.972;7.856;2023-04-25T05:39:26;16.43;;;8.30;;
5555;SDS011;2801;50.972;7.856;2023-04-25T05:41:53;18.17;;;7.43;;
5555;SDS011;2801;50.972;7.856;2023-04-25T05:44:20;17.33;;;7.57;;
5555;SDS011;2801;50.972;7.856;2023-04-25T05:46:47;15.87;;;7.73;;
5555;SDS011;2801;50.972;7.856;2023-04-25T05:49:15;16.77;;;7.83;;
5555;SDS011;2801;50.972;7.856;2023-04-25T05:51:44;15.97;;;7.67;;
5555;SDS011;2801;50.972;7.856;2023-04-25T05:54:11;19.53;;;7.90;;
5555;SDS011;2801;50.972;7.856;2023-04-25T05:56:38;16.03;;;7.80;;
5555;SDS011;2801;50.972;7.856;2023-04-25T05:59:05;14.83;;;7.97;;
5555;SDS011;2801;50.972;7.856;2023-04-25T06:01:32;16.63;;;7.53;;
5555;SDS011;2801;50.972;7.856;2023-04-25T06:03:59;11.77;;;5.90;;
5555;SDS011;2801;50.972;7.856;2023-04-25T06:06:26;11.37;;;6.00;;
5555;SDS011;2801;50.972;7.856;2023-04-25T06:08:54;16.30;;;6.70;;
5555;SDS011;2801;50.972;7.856;2023-04-25T06:11:21;12.70;;;5.97;;
5555;SDS011;2801;50.972;7.856;2023-04-25T06:13:48;13.57;;;6.40;;
5555;SDS011;2801;50.972;7.856;2023-04-25T06:16:16;14.33;;;6.57;;
5555;SDS011;2801;50.972;7.856;2023-04-25T06:18:43;13.60;;;6.07;;
5555;SDS011;2801;50.972;7.856;2023-04-25T06:21:10;13.57;;;5.90;;
5555;SDS011;2801;50.972;7.856;2023-04-25T06:23:37;14.20;;;6.30;;
5555;SDS011;2801;50.972;7.856;2023-04-25T06:26:04;15.93;;;7.00;;
5555;SDS011;2801;50.972;7.856;2023-04-25T06:28:30;13.77;;;6.93;;
5555;SDS011;2801;50.972;7.856;2023-04-25T06:30:57;14.27;;;7.50;;
5555;SDS011;2801;50.972;7.856;2023-04-25T06:33:24;13.30;;;6.33;;
5555;SDS011;2801;50.972;7.856;2023-04-25T06:35:52;14.33;;;6.83;;
5555;SDS011;2801;50.972;7.856;2023-04-25T06:38:19;13.90;;;6.70;;
5555;SDS011;2801;50.972;7.856;2023-04-25T06:40:46;16.83;;;6.63;;
5555;SDS011;2801;50.972;7.856;2023-04-25T06:43:13;15.20;;;6.30;;
5555;SDS011;2801;50.972;7.856;2023-04-25T06:45:40;16.83;;;6.37;;
5555;SDS011;2801;50.972;7.856;2023-04-25T06:48:09;13.17;;;4.70;;
5555;SDS011;2801;50.972;7.856;2023-04-25T06:50:36;11.60;;;3.70;;
5555;SDS011;2801;50.972;7.856;2023-04-25T06:53:03;8.83;;;3.73;;
5555;SDS011;2801;50.972;7.856;2023-04-25T06:55:30;7.00;;;3.10;;
5555;SDS011;2801;50.972;7.856;2023-04-25T06:57:57;5.10;;;2.50;;
5555;SDS011;2801;50.972;7.856;2023-04-25T07:00:24;6.57;;;3.10;;
5555;SDS011;2801;50.972;7.856;2023-04-25T07:02:51;10.80;;;3.17;;
5555;SDS011;2801;50.972;7.856;2023-04-25T07:05:18;6.43;;;2.60;;
5555;SDS011;2801;50.972;7.856;2023-04-25T07:07:45;9.37;;;3.50;;
5555;SDS011;2801;50.972;7.856;2023-04-25T07:10:12;15.77;;;3.97;;
5555;SDS011;2801;50.972;7.856;2023-04-25T07:12:39;7.97;;;3.67;;
5555;SDS011;2801;50.972;7.856;2023-04-25T07:15:06;9.13;;;3.57;;
5555;SDS011;2801;50.972;7.856;2023-04-25T07:17:36;10.83;;;3.57;;
5555;SDS011;2801;50.972;7.856;2023-04-25T07:20:03;11.53;;;3.60;;
5555;SDS011;2801;50.972;7.856;2023-04-25T07:22:32;10.07;;;3.80;;
5555;SDS011;2801;50.972;7.856;2023-04-25T07:24:59;10.93;;;4.07;;
5555;SDS011;2801;50.972;7.856;2023-04-25T07:27:26;9.87;;;3.50;;
5555;SDS011;2801;50.972;7.856;2023-04-25T07:29:53;11.03;;;3.93;;
5555;SDS011;2801;50.972;7.856;2023-04-25T07:32:20;8.10;;;3.90;;
5555;SDS011;2801;50.972;7.856;2023-04-25T07:34:47;7.07;;;3.93;;
5555;SDS011;2801;50.972;7.856;2023-04-25T07:37:14;11.50;;;3.37;;
5555;SDS011;2801;50.972;7.856;2023-04-25T07:39:41;11.40;;;3.67;;
5555;SDS011;2801;50.972;7.856;2023-04-25T07:42:08;12.40;;;3.63;;
5555;SDS011;2801;50.972;7.856;2023-04-25T07:44:35;8.37;;;3.47;;
5555;SDS011;2801;50.972;7.856;2023-04-25T07:47:05;10.23;;;3.30;;
5555;SDS011;2801;50.972;7.856;2023-04-25T07:49:36;8.97;;;3.33;;
5555;SDS011;2801;50.972;7.856;2023-04-25T07:52:04;9.63;;;3.70;;
5555;SDS011;2801;50.972;7.856;2023-04-25T07:54:34;9.73;;;4.00;;
5555;SDS011;2801;50.972;7.856;2023-04-25T07:57:01;13.50;;;4.13;;
5555;SDS011;2801;50.972;7.856;2023-04-25T07:59:28;10.03;;;3.23;;
5555;SDS011;2801;50.972;7.856;2023-04-25T08:01:55;10.13;;;4.20;;
5555;SDS011;2801;50.972;7.856;2023-04-25T08:04:24;9.17;;;3.33;;
5555;SDS011;2801;50.972;7.856;2023-04-25T08:06:52;7.23;;;3.23;;
5555;SDS011;2801;50.972;7.856;2023-04-25T08:09:20;10.83;;;4.03;;
5555;SDS011;2801;50.972;7.856;2023-04-25T08:11:47;9.83;;;3.23;;
5555;SDS011;2801;50.972;7.856;2023-04-25T08:14:14;8.77;;;3.30;;
5555;SDS011;2801;50.972;7.856;2023-04-25T08:16:41;9.87;;;3.27;;
5555;SDS011;2801;50.972;7.856;2023-04-25T08:19:08;8.77;;;3.40;;
5555;SDS011;2801;50.972;7.856;2023-04-25T08:21:37;6.50;;;2.90;;
5555;SDS011;2801;50.972;7.856;2023-04-25T08:24:04;8.77;;;3.40;;
5555;SDS011;2801;50.972;7.856;2023-04-25T08:26:31;7.50;;;2.97;;
5555;SDS011;2801;50.972;7.856;2023-04-25T08:28:59;8.87;;;2.93;;
5555;SDS011;2801;50.972;7.856;2023-04-25T08:31:26;6.73;;;2.70;;
5555;SDS011;2801;50.972;7.856;2023-04-25T08:33:53;7.43;;;3.07;;
5555;SDS011;2801;50.972;7.856;2023-04-25T08:36:20;5.87;;;2.90;;
5555;SDS011;2801;50.972;7.856;2023-04-25T08:39:04;7.60;;;2.93;;
5555;SDS011;2801;50.972;7.856;2023-04-25T08:41:32;9.47;;;3.20;;
5555;SDS011;2801;50.972;7.856;2023-04-25T08:43:58;7.77;;;3.30;;
5555;SDS011;2801;50.972;7.856;2023-04-25T08:46:27;9.60;;;3.73;;
5555;SDS011;2801;50.972;7.856;2023-04-25T08:48:59;9.57;;;3.10;;
5555;SDS011;2801;50.972;7.856;2023-04-25T08:51:30;9.07;;;3.27;;
5555;SDS011;2801;50.972;7.856;2023-04-25T08:54:16;11.13;;;5.40;;
5555;SDS011;2801;50.972;7.856;2023-04-25T08:57:01;8.17;;;3.80;;
5555;SDS011;2801;50.972;7.856;2023-04-25T08:59:30;6.87;;;3.93;;
5555;SDS011;2801;50.972;7.856;2023-04-25T09:02:00;7.67;;;3.17;;
5555;SDS011;2801;50.972;7.856;2023-04-25T09:04:29;9.27;;;3.60;;
5555;SDS011;2801;50.972;7.856;2023-04-25T09:06:58;6.77;;;3.50;;
5555;SDS011;2801;50.972;7.856;2023-04-25T09:09:25;8.37;;;3.57;;
5555;SDS011;2801;50.972;7.856;2023-04-25T09:11:52;8.57;;;3.40;;
5555;SDS011;2801;50.972;7.856;2023-04-25T09:14:22;8.07;;;4.03;;
5555;SDS011;2801;50.972;7.856;2023-04-25T09:19:39;8.33;;;3.20;;
5555;SDS011;2801;50.972;7.856;2023-04-25T09:22:24;7.57;;;3.53;;
5555;SDS011;2801;50.972;7.856;2023-04-25T09:24:51;8.13;;;3.50;;
5555;SDS011;2801;50.972;7.856;2023-04-25T09:27:19;7.93;;;3.93;;
5555;SDS011;2801;50.972;7.856;2023-04-25T09:29:59;9.70;;;3.53;;
5555;SDS011;2801;50.972;7.856;2023-04-25T09:32:27;9.20;;;3.60;;
5555;SDS011;2801;50.972;7.856;2023-04-25T09:34:55;10.10;;;3.40;;
5555;SDS011;2801;50.972;7.856;2023-04-25T09:37:41;6.80;;;3.83;;
5555;SDS011;2801;50.972;7.856;2023-04-25T09:40:08;8.63;;;3.40;;
5555;SDS011;2801;50.972;7.856;2023-04-25T09:42:54;9.17;;;4.27;;
5555;SDS011;2801;50.972;7.856;2023-04-25T09:45:21;9.03;;;3.67;;
5555;SDS011;2801;50.972;7.856;2023-04-25T09:47:48;5.05;;;3.25;;
5555;SDS011;2801;50.972;7.856;2023-04-25T09:50:17;9.53;;;3.80;;
5555;SDS011;2801;50.972;7.856;2023-04-25T09:52:45;7.57;;;3.37;;
5555;SDS011;2801;50.972;7.856;2023-04-25T09:55:29;6.77;;;3.40;;
5555;SDS011;2801;50.972;7.856;2023-04-25T09:57:57;7.87;;;2.90;;
5555;SDS011;2801;50.972;7.856;2023-04-25T10:00:32;6.23;;;2.93;;
5555;SDS011;2801;50.972;7.856;2023-04-25T10:03:01;8.63;;;3.42;;
5555;SDS011;2801;50.972;7.856;2023-04-25T10:05:32;7.57;;;2.37;;
5555;SDS011;2801;50.972;7.856;2023-04-25T10:08:02;4.55;;;2.10;;
5555;SDS011;2801;50.972;7.856;2023-04-25T10:10:32;4.60;;;1.67;;
5555;SDS011;2801;50.972;7.856;2023-04-25T10:13:03;7.05;;;2.25;;
5555;SDS011;2801;50.972;7.856;2023-04-25T10:15:32;5.95;;;2.20;;
5555;SDS011;2801;50.972;7.856;2023-04-25T10:18:05;7.77;;;2.53;;
5555;SDS011;2801;50.972;7.856;2023-04-25T10:20:51;6.47;;;2.27;;
5555;SDS011;2801;50.972;7.856;2023-04-25T10:23:40;7.32;;;2.45;;
5555;SDS011;2801;50.972;7.856;2023-04-25T10:26:08;6.63;;;2.50;;
5555;SDS011;2801;50.972;7.856;2023-04-25T10:29:03;7.38;;;2.47;;
5555;SDS011;2801;50.972;7.856;2023-04-25T10:31:30;8.43;;;2.60;;
5555;SDS011;2801;50.972;7.856;2023-04-25T10:33:59;7.35;;;2.63;;
5555;SDS011;2801;50.972;7.856;2023-04-25T10:36:27;7.72;;;2.60;;
5555;SDS011;2801;50.972;7.856;2023-04-25T10:39:02;7.00;;;2.55;;
5555;SDS011;2801;50.972;7.856;2023-04-25T10:41:48;4.10;;;1.70;;
5555;SDS011;2801;50.972;7.856;2023-04-25T10:44:31;5.63;;;1.85;;
5555;SDS011;2801;50.972;7.856;2023-04-25T10:46:59;6.78;;;1.80;;
5555;SDS011;2801;50.972;7.856;2023-04-25T10:49:41;5.93;;;1.67;;
5555;SDS011;2801;50.972;7.856;2023-04-25T10:54:42;6.60;;;1.88;;
5555;SDS011;2801;50.972;7.856;2023-04-25T10:57:26;5.75;;;2.00;;
5555;SDS011;2801;50.972;7.856;2023-04-25T10:59:59;5.70;;;1.80;;
5555;SDS011;2801;50.972;7.856;2023-04-25T11:02:59;5.68;;;1.83;;
5555;SDS011;2801;50.972;7.856;2023-04-25T11:08:16;6.53;;;1.90;;
5555;SDS011;2801;50.972;7.856;2023-04-25T11:11:01;6.95;;;1.88;;
5555;SDS011;2801;50.972;7.856;2023-04-25T11:13:29;6.65;;;1.98;;
5555;SDS011;2801;50.972;7.856;2023-04-25T11:15:56;4.80;;;1.83;;
5555;SDS011;2801;50.972;7.856;2023-04-25T11:18:40;6.88;;;2.22;;
5555;SDS011;2801;50.972;7.856;2023-04-25T11:21:08;7.28;;;2.45;;
5555;SDS011;2801;50.972;7.856;2023-04-25T11:23:36;4.07;;;1.98;;
5555;SDS011;2801;50.972;7.856;2023-04-25T11:26:03;4.88;;;1.55;;
5555;SDS011;2801;50.972;7.856;2023-04-25T11:28:30;4.88;;;1.75;;
5555;SDS011;2801;50.972;7.856;2023-04-25T11:30:57;4.53;;;1.40;;
5555;SDS011;2801;50.972;7.856;2023-04-25T11:33:24;3.57;;;1.70;;
5555;SDS011;2801;50.972;7.856;2023-04-25T11:35:54;7.75;;;1.90;;
5555;SDS011;2801;50.972;7.856;2023-04-25T11:38:22;4.32;;;1.67;;
5555;SDS011;2801;50.972;7.856;2023-04-25T11:40:54;4.05;;;1.40;;
5555;SDS011;2801;50.972;7.856;2023-04-25T11:43:21;3.97;;;1.98;;
5555;SDS011;2801;50.972;7.856;2023-04-25T11:45:49;5.45;;;1.77;;
5555;SDS011;2801;50.972;7.856;2023-04-25T11:48:20;2.20;;;1.23;;
5555;SDS011;2801;50.972;7.856;2023-04-25T11:50:51;3.55;;;1.27;;
5555;SDS011;2801;50.972;7.856;2023-04-25T11:53:20;4.72;;;1.50;;
5555;SDS011;2801;50.972;7.856;2023-04-25T11:55:47;3.15;;;1.48;;
5555;SDS011;2801;50.972;7.856;2023-04-25T11:58:14;4.20;;;1.48;;
5555;SDS011;2801;50.972;7.856;2023-04-25T12:00:41;5.30;;;1.63;;
5555;SDS011;2801;50.972;7.856;2023-04-25T12:03:16;3.33;;;1.00;;
5555;SDS011;2801;50.972;7.856;2023-04-25T12:05:45;4.32;;;1.25;;
5555;SDS011;2801;50.972;7.856;2023-04-25T12:08:13;3.28;;;1.40;;
5555;SDS011;2801;50.972;7.856;2023-04-25T12:10:43;3.15;;;1.27;;
5555;SDS011;2801;50.972;7.856;2023-04-25T12:13:22;6.07;;;1.42;;
5555;SDS011;2801;50.972;7.856;2023-04-25T12:15:54;3.10;;;1.30;;
5555;SDS011;2801;50.972;7.856;2023-04-25T12:18:25;3.22;;;1.35;;
5555;SDS011;2801;50.972;7.856;2023-04-25T12:20:55;2.88;;;1.40;;
5555;SDS011;2801;50.972;7.856;2023-04-25T12:23:26;3.70;;;1.65;;
5555;SDS011;2801;50.972;7.856;2023-04-25T12:25:54;3.15;;;1.23;;
5555;SDS011;2801;50.972;7.856;2023-04-25T12:28:23;3.10;;;1.48;;
5555;SDS011;2801;50.972;7.856;2023-04-25T12:33:35;2.92;;;1.00;;
5555;SDS011;2801;50.972;7.856;2023-04-25T12:36:04;3.70;;;1.40;;
5555;SDS011;2801;50.972;7.856;2023-04-25T12:38:38;5.22;;;1.48;;
5555;SDS011;2801;50.972;7.856;2023-04-25T12:41:09;6.25;;;1.90;;
5555;SDS011;2801;50.972;7.856;2023-04-25T12:43:36;2.10;;;1.38;;
5555;SDS011;2801;50.972;7.856;2023-04-25T12:46:03;4.13;;;1.58;;
5555;SDS011;2801;50.972;7.856;2023-04-25T12:48:30;3.92;;;1.40;;
5555;SDS011;2801;50.972;7.856;2023-04-25T12:50:57;6.95;;;1.73;;
5555;SDS011;2801;50.972;7.856;2023-04-25T12:53:24;4.90;;;2.00;;
5555;SDS011;2801;50.972;7.856;2023-04-25T12:55:51;3.35;;;1.10;;
5555;SDS011;2801;50.972;7.856;2023-04-25T12:58:18;3.58;;;1.63;;
5555;SDS011;2801;50.972;7.856;2023-04-25T13:00:46;6.10;;;1.52;;
5555;SDS011;2801;50.972;7.856;2023-04-25T13:03:14;5.15;;;1.50;;
5555;SDS011;2801;50.972;7.856;2023-04-25T13:05:41;2.88;;;1.35;;
5555;SDS011;2801;50.972;7.856;2023-04-25T13:08:08;5.80;;;2.10;;
5555;SDS011;2801;50.972;7.856;2023-04-25T13:10:35;3.33;;;1.20;;
5555;SDS011;2801;50.972;7.856;2023-04-25T13:13:04;4.03;;;1.52;;
5555;SDS011;2801;50.972;7.856;2023-04-25T13:15:31;4.75;;;1.80;;
5555;SDS011;2801;50.972;7.856;2023-04-25T13:17:58;4.82;;;1.60;;
5555;SDS011;2801;50.972;7.856;2023-04-25T13:20:26;5.57;;;1.48;;
5555;SDS011;2801;50.972;7.856;2023-04-25T13:22:52;4.93;;;1.45;;
5555;SDS011;2801;50.972;7.856;2023-04-25T13:25:19;3.90;;;1.48;;
5555;SDS011;2801;50.972;7.856;2023-04-25T13:27:47;3.05;;;1.60;;
5555;SDS011;2801;50.972;7.856;2023-04-25T13:30:14;5.93;;;1.80;;
5555;SDS011;2801;50.972;7.856;2023-04-25T13:32:42;2.95;;;1.50;;
5555;SDS011;2801;50.972;7.856;2023-04-25T13:35:09;6.53;;;2.28;;
5555;SDS011;2801;50.972;7.856;2023-04-25T13:37:39;5.30;;;1.70;;
5555;SDS011;2801;50.972;7.856;2023-04-25T13:40:08;6.40;;;1.88;;
5555;SDS011;2801;50.972;7.856;2023-04-25T13:42:37;5.10;;;2.08;;
5555;SDS011;2801;50.972;7.856;2023-04-25T13:45:05;4.00;;;1.70;;
5555;SDS011;2801;50.972;7.856;2023-04-25T13:47:33;7.57;;;2.00;;
5555;SDS011;2801;50.972;7.856;2023-04-25T13:50:01;5.97;;;2.30;;
5555;SDS011;2801;50.972;7.856;2023-04-25T13:52:29;4.25;;;1.60;;
5555;SDS011;2801;50.972;7.856;2023-04-25T13:54:57;4.30;;;1.67;;
5555;SDS011;2801;50.972;7.856;2023-04-25T13:57:24;4.57;;;1.70;;
5555;SDS011;2801;50.972;7.856;2023-04-25T13:59:52;3.75;;;1.75;;
5555;SDS011;2801;50.972;7.856;2023-04-25T14:02:19;3.22;;;1.52;;
5555;SDS011;2801;50.972;7.856;2023-04-25T14:04:46;4.93;;;1.70;;
5555;SDS011;2801;50.972;7.856;2023-04-25T14:07:13;5.30;;;1.80;;
5555;SDS011;2801;50.972;7.856;2023-04-25T14:09:45;3.67;;;1.92;;
5555;SDS011;2801;50.972;7.856;2023-04-25T14:12:12;5.10;;;1.98;;
5555;SDS011;2801;50.972;7.856;2023-04-25T14:14:39;5.82;;;2.17;;
5555;SDS011;2801;50.972;7.856;2023-04-25T14:17:06;5.47;;;2.00;;
5555;SDS011;2801;50.972;7.856;2023-04-25T14:19:34;8.70;;;1.98;;
5555;SDS011;2801;50.972;7.856;2023-04-25T14:22:01;6.28;;;1.98;;
5555;SDS011;2801;50.972;7.856;2023-04-25T14:24:28;4.25;;;2.20;;
5555;SDS011;2801;50.972;7.856;2023-04-25T14:26:55;4.20;;;1.60;;
5555;SDS011;2801;50.972;7.856;2023-04-25T14:29:22;5.23;;;2.00;;
5555;SDS011;2801;50.972;7.856;2023-04-25T14:31:49;4.55;;;1.63;;
5555;SDS011;2801;50.972;7.856;2023-04-25T14:34:16;8.07;;;2.40;;
5555;SDS011;2801;50.972;7.856;2023-04-25T14:36:43;5.50;;;1.95;;
5555;SDS011;2801;50.972;7.856;2023-04-25T14:39:12;6.90;;;2.23;;
5555;SDS011;2801;50.972;7.856;2023-04-25T14:41:40;5.85;;;2.10;;
5555;SDS011;2801;50.972;7.856;2023-04-25T14:44:07;6.03;;;1.52;;
5555;SDS011;2801;50.972;7.856;2023-04-25T14:46:34;3.20;;;1.70;;
5555;SDS011;2801;50.972;7.856;2023-04-25T14:49:02;4.68;;;1.80;;
5555;SDS011;2801;50.972;7.856;2023-04-25T14:51:30;6.97;;;1.77;;
5555;SDS011;2801;50.972;7.856;2023-04-25T14:53:57;4.40;;;2.03;;
5555;SDS011;2801;50.972;7.856;2023-04-25T14:56:24;4.47;;;1.60;;
5555;SDS011;2801;50.972;7.856;2023-04-25T14:58:51;8.85;;;2.40;;
5555;SDS011;2801;50.972;7.856;2023-04-25T15:01:18;6.82;;;1.67;;
5555;SDS011;2801;50.972;7.856;2023-04-25T15:03:47;2.97;;;1.63;;
5555;SDS011;2801;50.972;7.856;2023-04-25T15:06:14;3.95;;;1.88;;
5555;SDS011;2801;50.972;7.856;2023-04-25T15:08:41;3.00;;;1.63;;
5555;SDS011;2801;50.972;7.856;2023-04-25T15:11:08;2.08;;;0.98;;
5555;SDS011;2801;50.972;7.856;2023-04-25T15:13:37;3.03;;;1.17;;
5555;SDS011;2801;50.972;7.856;2023-04-25T15:16:04;2.40;;;1.30;;
5555;SDS011;2801;50.972;7.856;2023-04-25T15:18:32;4.38;;;1.30;;
5555;SDS011;2801;50.972;7.856;2023-04-25T15:20:59;2.97;;;1.20;;
5555;SDS011;2801;50.972;7.856;2023-04-25T15:23:26;3.15;;;1.42;;
5555;SDS011;2801;50.972;7.856;2023-04-25T15:25:55;4.10;;;1.60;;
5555;SDS011;2801;50.972;7.856;2023-04-25T15:28:22;5.55;;;1.52;;